Time;durP1;ratioP1;P1;durP2;ratioP2;P2;SDS_P1;SDS_P2;PMS_P1;PMS_P2;Temp;Humidity;BMP_temperature;BMP_pressure;BME280_temperature;BME280_humidity;BME280_pressure;Samples;Min_cycle;Max_cycle;Signal;HPM_P1;HPM_P2
2022/08/26 00:01:21;;;;;;;0.00;0.00;;;;;;;21.95;86.71;100275.81;4954401;28;20531;-71
2022/08/26 00:03:47;;;;;;;0.00;0.00;;;;;;;22.04;86.56;100281.03;4954191;28;20178;-71
2022/08/26 00:06:13;;;;;;;0.00;0.00;;;;;;;22.12;85.90;100277.06;4954459;28;20429;-71
2022/08/26 00:08:39;;;;;;;0.00;0.00;;;;;;;22.22;85.34;100281.88;4954399;28;20239;-71
2022/08/26 00:11:05;;;;;;;0.00;0.00;;;;;;;22.23;85.02;100277.91;4954381;28;20183;-71
2022/08/26 00:13:31;;;;;;;0.00;0.00;;;;;;;22.25;84.62;100283.88;4954089;28;20179;-71
2022/08/26 00:15:56;;;;;;;0.00;0.00;;;;;;;22.23;85.20;100279.91;4954001;28;20709;-71
2022/08/26 00:18:21;;;;;;;0.00;0.00;;;;;;;22.25;84.93;100277.50;4954271;28;20179;-71
2022/08/26 00:20:47;;;;;;;0.00;0.00;;;;;;;22.21;85.45;100273.94;4954099;28;20174;-71
2022/08/26 00:23:12;;;;;;;0.00;0.00;;;;;;;22.20;86.01;100277.91;4954353;28;20510;-71
2022/08/26 00:25:38;;;;;;;0.00;0.00;;;;;;;22.14;86.05;100279.50;4953890;28;20183;-71
2022/08/26 00:28:04;;;;;;;0.00;0.00;;;;;;;21.92;86.51;100264.69;4954052;28;20183;-71
2022/08/26 00:30:30;;;;;;;0.00;0.00;;;;;;;21.66;87.94;100271.34;4952889;29;20183;-71
2022/08/26 00:32:57;;;;;;;0.03;0.03;;;;;;;21.87;87.49;100276.19;4953962;28;20183;-71
2022/08/26 00:35:24;;;;;;;0.00;0.00;;;;;;;21.98;86.80;100268.66;4953676;28;20183;-71
2022/08/26 00:37:50;;;;;;;0.00;0.00;;;;;;;22.04;86.36;100269.09;4953857;28;20210;-71
2022/08/26 00:40:20;;;;;;;0.00;0.00;;;;;;;22.02;86.13;100272.28;4954225;28;20182;-71
2022/08/26 00:42:45;;;;;;;0.00;0.00;;;;;;;21.96;86.23;100274.63;4953829;28;20311;-71
2022/08/26 00:45:12;;;;;;;0.00;0.00;;;;;;;21.92;86.97;100279.38;4953822;28;20257;-71
2022/08/26 00:47:44;;;;;;;0.10;0.10;;;;;;;21.83;87.42;100270.59;4953751;28;20692;-71
2022/08/26 00:50:15;;;;;;;0.00;0.00;;;;;;;21.77;87.97;100266.63;4953618;28;20310;-71
2022/08/26 00:52:41;;;;;;;0.00;0.00;;;;;;;21.72;88.55;100263.44;4953415;28;20201;-71
2022/08/26 00:55:25;;;;;;;0.00;0.00;;;;;;;21.80;88.44;100260.25;4953215;28;20190;-71
2022/08/26 00:57:52;;;;;;;0.00;0.00;;;;;;;21.81;88.18;100267.41;4953513;28;20241;-71
2022/08/26 01:00:22;;;;;;;0.00;0.00;;;;;;;21.87;87.72;100262.28;4953447;28;20214;-71
2022/08/26 01:02:48;;;;;;;0.00;0.00;;;;;;;21.90;87.14;100262.28;4951891;29;20631;-71
2022/08/26 01:05:15;;;;;;;0.00;0.00;;;;;;;21.95;87.18;100259.13;4951918;29;20182;-71
2022/08/26 01:07:40;;;;;;;0.00;0.00;;;;;;;21.91;86.66;100271.44;4953359;28;20197;-71
2022/08/26 01:10:13;;;;;;;0.00;0.00;;;;;;;21.81;87.15;100261.84;4953156;28;20650;-71
2022/08/26 01:12:43;;;;;;;0.00;0.00;;;;;;;21.82;87.38;100269.00;4951869;29;20185;-72
2022/08/26 01:15:14;;;;;;;0.00;0.00;;;;;;;21.82;87.65;100271.00;4952870;28;20177;-71
2022/08/26 01:17:39;;;;;;;0.00;0.00;;;;;;;21.90;87.25;100264.28;4953102;28;20693;-71
2022/08/26 01:20:16;;;;;;;0.00;0.00;;;;;;;21.91;87.07;100266.66;4953095;28;20525;-71
2022/08/26 01:22:59;;;;;;;0.00;0.00;;;;;;;21.91;87.07;100265.88;4953031;28;20175;-71
2022/08/26 01:25:29;;;;;;;0.63;0.63;;;;;;;21.78;87.24;100265.44;4951462;29;20189;-71
2022/08/26 01:27:57;;;;;;;0.00;0.00;;;;;;;21.68;87.96;100269.75;4952973;28;20179;-71
2022/08/26 01:30:24;;;;;;;0.00;0.00;;;;;;;21.66;88.30;100260.22;4952866;28;20213;-71
2022/08/26 01:32:50;;;;;;;0.00;0.00;;;;;;;21.77;88.20;100260.25;4952817;28;20193;-71
2022/08/26 01:35:17;;;;;;;0.00;0.00;;;;;;;21.78;87.71;100267.41;4952506;28;20182;-71
2022/08/26 01:37:43;;;;;;;0.00;0.00;;;;;;;21.79;87.60;100261.47;4952843;28;20214;-71
2022/08/26 01:40:15;;;;;;;0.00;0.00;;;;;;;21.85;87.42;100262.69;4952816;28;20569;-71
2022/08/26 01:42:41;;;;;;;0.00;0.00;;;;;;;21.85;87.28;100264.69;4952174;28;20182;-71
2022/08/26 01:45:14;;;;;;;0.00;0.00;;;;;;;21.77;87.37;100265.81;4952556;28;20182;-71
2022/08/26 01:47:41;;;;;;;0.00;0.00;;;;;;;21.71;87.93;100262.63;4952704;28;20238;-71
2022/08/26 01:50:12;;;;;;;0.00;0.00;;;;;;;21.74;87.89;100270.19;4953018;28;20183;-71
2022/08/26 01:52:41;;;;;;;0.00;0.00;;;;;;;21.75;87.95;100262.63;4952058;28;20186;-72
2022/08/26 01:55:07;;;;;;;0.00;0.00;;;;;;;21.80;87.58;100263.03;4952253;28;20194;-72
2022/08/26 01:57:34;;;;;;;0.00;0.00;;;;;;;21.77;87.70;100260.25;4952437;28;20214;-72
2022/08/26 02:00:03;;;;;;;0.00;0.00;;;;;;;21.75;87.51;100263.44;4952507;28;20241;-72
2022/08/26 02:02:29;;;;;;;0.00;0.00;;;;;;;21.61;88.43;100271.72;4952539;28;20665;-72
2022/08/26 02:05:02;;;;;;;0.00;0.00;;;;;;;21.47;88.92;100274.44;4951697;28;20182;-72
2022/08/26 02:07:28;;;;;;;0.00;0.00;;;;;;;21.57;89.06;100268.13;4952502;28;20210;-71
2022/08/26 02:09:53;;;;;;;0.00;0.00;;;;;;;21.64;88.42;100268.94;4952488;28;20641;-71
2022/08/26 02:12:20;;;;;;;0.00;0.00;;;;;;;21.69;87.87;100267.75;4952321;28;20225;-71
2022/08/26 02:14:52;;;;;;;0.00;0.00;;;;;;;21.73;87.68;100270.59;4952424;28;20197;-71
2022/08/26 02:17:20;;;;;;;0.00;0.00;;;;;;;21.68;87.63;100266.97;4952250;28;20234;-70
2022/08/26 02:19:49;;;;;;;0.00;0.00;;;;;;;21.68;87.72;100268.94;4952318;28;20253;-71
2022/08/26 02:22:18;;;;;;;0.00;0.00;;;;;;;21.65;87.70;100264.19;4952199;28;20171;-70
2022/08/26 02:24:53;;;;;;;0.00;0.00;;;;;;;21.65;87.64;100264.19;4951907;28;20650;-71
2022/08/26 02:27:23;;;;;;;0.00;0.00;;;;;;;21.64;87.50;100271.72;4971029;28;20213;-71
2022/08/26 02:29:54;;;;;;;0.00;0.00;;;;;;;21.59;87.47;100265.75;4971169;28;20178;-71
2022/08/26 02:32:19;;;;;;;0.00;0.00;;;;;;;21.48;88.09;100262.91;4971740;28;20612;-70
2022/08/26 02:34:45;;;;;;;0.00;0.00;;;;;;;21.35;89.21;100259.66;4971303;28;20178;-71
2022/08/26 02:37:11;;;;;;;0.00;0.00;;;;;;;21.30;89.48;100270.38;4971458;28;20224;-71
2022/08/26 02:39:39;;;;;;;0.00;0.00;;;;;;;21.31;90.06;100260.84;4970903;28;20724;-71
2022/08/26 02:42:04;;;;;;;0.00;0.00;;;;;;;21.34;90.00;100263.63;4971267;28;20178;-72
2022/08/26 02:44:31;;;;;;;0.00;0.00;;;;;;;21.28;90.22;100259.66;4971154;28;20574;-71
2022/08/26 02:46:56;;;;;;;0.00;0.00;;;;;;;21.24;89.95;100258.78;4971510;28;20173;-72
2022/08/26 02:49:23;;;;;;;0.00;0.00;;;;;;;21.27;90.23;100265.59;4970784;28;20537;-72
2022/08/26 02:51:49;;;;;;;0.00;0.00;;;;;;;21.25;90.37;100254.03;4971323;28;20760;-72
2022/08/26 02:54:15;;;;;;;0.00;0.00;;;;;;;21.41;89.58;100257.34;4970612;28;20253;-72
2022/08/26 02:56:42;;;;;;;0.00;0.00;;;;;;;21.44;89.17;100253.78;4971248;28;20257;-72
2022/08/26 02:59:07;;;;;;;0.00;0.00;;;;;;;21.48;89.12;100251.00;4971179;28;20178;-72
2022/08/26 03:01:34;;;;;;;0.00;0.00;;;;;;;21.34;89.48;100248.94;4971241;28;20390;-72
2022/08/26 03:04:03;;;;;;;0.00;0.00;;;;;;;21.30;90.06;100253.69;4970768;28;20192;-72
2022/08/26 03:06:29;;;;;;;0.00;0.00;;;;;;;21.20;90.62;100240.50;4970217;28;20538;-72
2022/08/26 03:08:54;;;;;;;0.00;0.00;;;;;;;21.04;91.97;100243.59;4970978;28;20175;-72
2022/08/26 03:11:21;;;;;;;0.00;0.00;;;;;;;20.96;92.49;100236.38;4971101;28;20170;-72
2022/08/26 03:13:46;;;;;;;0.00;0.00;;;;;;;20.88;93.32;100226.41;4970844;28;20178;-72
2022/08/26 03:16:12;;;;;;;0.00;0.00;;;;;;;21.01;92.84;100228.50;4974728;28;20228;-72
2022/08/26 03:18:39;;;;;;;0.00;0.00;;;;;;;21.12;91.88;100220.22;4974729;28;20196;-71
2022/08/26 03:21:13;;;;;;;0.00;0.00;;;;;;;21.15;91.31;100225.00;4974630;28;20197;-72
2022/08/26 03:23:40;;;;;;;0.00;0.00;;;;;;;21.09;91.58;100227.34;4974232;28;20263;-72
2022/08/26 03:26:07;;;;;;;0.00;0.00;;;;;;;21.09;91.60;100221.78;4974694;28;20185;-72
2022/08/26 03:28:32;;;;;;;0.00;0.00;;;;;;;21.09;91.76;100232.88;4974429;28;20183;-71
2022/08/26 03:30:58;;;;;;;0.00;0.00;;;;;;;20.96;92.21;100219.72;4974486;28;20263;-72
2022/08/26 03:33:24;;;;;;;0.00;0.00;;;;;;;20.87;93.16;100222.03;4974227;28;20185;-71
2022/08/26 03:35:51;;;;;;;0.00;0.00;;;;;;;21.02;92.68;100223.72;4974236;28;20183;-72
2022/08/26 03:38:18;;;;;;;0.00;0.00;;;;;;;21.10;92.10;100217.00;4972947;28;20688;-72
2022/08/26 03:40:43;;;;;;;0.00;0.00;;;;;;;20.92;92.80;100211.34;4974418;28;20636;-72
2022/08/26 03:43:11;;;;;;;0.00;0.00;;;;;;;20.79;93.83;100210.88;4974293;28;20256;-71
2022/08/26 03:45:37;;;;;;;0.00;0.00;;;;;;;20.71;94.83;100214.00;4972623;28;20189;-72
2022/08/26 03:48:04;;;;;;;0.00;0.00;;;;;;;20.85;94.41;100218.84;4973571;28;20206;-72
2022/08/26 03:50:29;;;;;;;0.00;0.00;;;;;;;20.76;94.37;100213.63;4974124;28;20208;-72
2022/08/26 03:52:58;;;;;;;0.00;0.00;;;;;;;20.80;94.55;100209.69;4974122;28;20540;-72
2022/08/26 03:55:27;;;;;;;0.00;0.00;;;;;;;20.93;93.68;100215.72;4973843;28;20209;-72
2022/08/26 03:57:53;;;;;;;0.00;0.00;;;;;;;20.95;93.23;100212.56;4974062;28;20680;-72
2022/08/26 04:00:19;;;;;;;0.00;0.00;;;;;;;20.91;93.36;100218.09;4974077;28;20539;-71
2022/08/26 04:02:47;;;;;;;0.00;0.00;;;;;;;20.96;93.33;100217.72;4973800;28;20623;-72
2022/08/26 04:05:14;;;;;;;0.00;0.00;;;;;;;20.77;93.25;100218.78;4974301;28;20180;-72
2022/08/26 04:07:41;;;;;;;0.00;0.00;;;;;;;20.45;95.80;100221.31;4974153;28;20170;-72
2022/08/26 04:10:08;;;;;;;0.00;0.00;;;;;;;20.38;97.15;100217.66;4973734;28;20178;-72
2022/08/26 04:12:35;;;;;;;0.00;0.00;;;;;;;20.70;96.41;100206.84;4973656;28;20261;-72
2022/08/26 04:15:00;;;;;;;0.00;0.00;;;;;;;20.69;95.70;100214.38;4973492;28;20237;-72
2022/08/26 04:17:26;;;;;;;0.17;0.17;;;;;;;20.34;97.38;100205.72;4974009;28;20213;-71
2022/08/26 04:19:52;;;;;;;0.00;0.00;;;;;;;20.22;98.94;100204.03;4973640;28;20173;-72
2022/08/26 04:22:18;;;;;;;0.00;0.00;;;;;;;20.23;99.74;100213.16;4974009;28;20184;-72
2022/08/26 04:24:44;;;;;;;0.00;0.00;;;;;;;20.35;99.73;100204.53;4973150;28;20514;-72
2022/08/26 04:27:09;;;;;;;0.00;0.00;;;;;;;20.42;99.28;100210.19;4972861;28;20185;-72
2022/08/26 04:29:34;;;;;;;0.00;0.00;;;;;;;20.34;98.94;100214.84;4973403;28;20269;-72
2022/08/26 04:32:00;;;;;;;0.00;0.00;;;;;;;20.47;98.85;100218.97;4973408;28;20178;-72
2022/08/26 04:34:27;;;;;;;0.77;0.77;;;;;;;20.69;97.48;100224.69;4973452;28;20269;-72
2022/08/26 04:36:52;;;;;;;0.00;0.00;;;;;;;20.80;95.94;100220.00;4973370;28;20203;-71
2022/08/26 04:39:19;;;;;;;0.00;0.00;;;;;;;20.83;95.36;100221.19;4973389;28;20269;-71
2022/08/26 04:41:46;;;;;;;0.00;0.00;;;;;;;20.76;95.08;100217.19;4973253;28;20237;-71
2022/08/26 04:44:12;;;;;;;0.00;0.00;;;;;;;20.75;95.55;100221.16;4972822;28;20188;-72
2022/08/26 04:46:39;;;;;;;0.00;0.00;;;;;;;20.71;96.71;100216.78;4973144;28;20175;-71
2022/08/26 04:49:07;;;;;;;0.00;0.00;;;;;;;20.28;97.64;100219.16;4972672;28;20178;-72
2022/08/26 04:51:37;;;;;;;0.00;0.00;;;;;;;20.11;99.76;100217.81;4973188;28;20182;-72
2022/08/26 04:54:05;;;;;;;0.00;0.00;;;;;;;20.27;99.57;100219.56;4972577;28;20193;-72
2022/08/26 04:56:33;;;;;;;0.00;0.00;;;;;;;20.46;98.80;100219.34;4972887;28;20198;-72
2022/08/26 04:59:00;;;;;;;0.00;0.00;;;;;;;20.56;97.94;100223.41;4972803;28;20639;-72
2022/08/26 05:01:26;;;;;;;0.00;0.00;;;;;;;20.63;97.20;100224.25;4972813;28;20596;-72
2022/08/26 05:03:51;;;;;;;0.00;0.00;;;;;;;20.54;96.85;100217.41;4972441;28;20186;-72
2022/08/26 05:06:18;;;;;;;0.00;0.00;;;;;;;20.25;99.10;100219.13;4972748;28;20177;-72
2022/08/26 05:08:43;;;;;;;0.00;0.00;;;;;;;20.48;99.16;100228.09;4973019;28;20225;-72
2022/08/26 05:11:09;;;;;;;0.10;0.10;;;;;;;20.61;97.74;100226.59;4973045;28;20181;-72
2022/08/26 05:13:35;;;;;;;0.00;0.00;;;;;;;20.64;96.74;100230.59;4972313;28;20623;-71
2022/08/26 05:16:06;;;;;;;0.00;0.00;;;;;;;20.46;97.25;100220.16;4972485;28;20222;-72
2022/08/26 05:18:33;;;;;;;0.00;0.00;;;;;;;20.23;98.93;100232.56;4972446;28;20186;-72
2022/08/26 05:20:59;;;;;;;0.20;0.20;;;;;;;20.36;99.10;100231.91;4972863;28;20186;-72
2022/08/26 05:23:25;;;;;;;0.00;0.00;;;;;;;20.59;98.45;100230.97;4972152;28;20178;-72
2022/08/26 05:25:53;;;;;;;0.00;0.00;;;;;;;20.64;98.42;100231.38;4972742;28;20178;-72
2022/08/26 05:28:19;;;;;;;0.00;0.00;;;;;;;20.74;97.82;100227.91;4972491;28;20192;-72
2022/08/26 05:30:45;;;;;;;0.00;0.00;;;;;;;20.63;97.84;100229.00;4972277;28;20170;-72
2022/08/26 05:33:10;;;;;;;0.00;0.00;;;;;;;20.64;97.80;100234.16;4972125;28;20574;-72
2022/08/26 05:35:37;;;;;;;0.00;0.00;;;;;;;20.73;97.22;100237.41;4971990;28;20205;-72
2022/08/26 05:38:05;;;;;;;0.00;0.00;;;;;;;20.74;96.44;100244.56;4971066;28;20241;-72
2022/08/26 05:40:40;;;;;;;0.00;0.00;;;;;;;20.54;97.14;100237.63;4972128;28;20176;-72
2022/08/26 05:43:09;;;;;;;0.00;0.00;;;;;;;20.58;98.02;100235.72;4972056;28;20258;-71
2022/08/26 05:45:39;;;;;;;0.00;0.00;;;;;;;20.71;97.85;100227.88;4971876;28;20630;-72
2022/08/26 05:48:07;;;;;;;0.10;0.10;;;;;;;20.81;97.09;100227.16;4971241;28;20596;-71
2022/08/26 05:50:52;;;;;;;0.00;0.00;;;;;;;20.90;96.45;100226.81;4971985;28;20166;-72
2022/08/26 05:53:20;;;;;;;0.00;0.00;;;;;;;20.83;96.58;100224.81;4971466;28;20193;-72
2022/08/26 05:55:51;;;;;;;0.00;0.00;;;;;;;20.49;98.13;100221.34;4971644;28;20193;-72
2022/08/26 05:58:19;;;;;;;0.00;0.00;;;;;;;20.23;100.00;100227.03;4970210;28;20237;-72
2022/08/26 06:00:47;;;;;;;0.40;0.20;;;;;;;20.03;100.00;100234.75;4971814;28;20475;-72
2022/08/26 06:03:13;;;;;;;0.00;0.00;;;;;;;20.02;100.00;100236.75;4970280;28;20175;-72
2022/08/26 06:05:39;;;;;;;0.00;0.00;;;;;;;19.97;100.00;100242.63;4971614;28;20258;-72
2022/08/26 06:08:10;;;;;;;0.00;0.00;;;;;;;19.97;100.00;100244.63;4971637;28;20654;-72
2022/08/26 06:10:42;;;;;;;0.00;0.00;;;;;;;20.09;100.00;100242.34;4972144;28;20190;-72
2022/08/26 06:13:09;;;;;;;0.00;0.00;;;;;;;20.16;100.00;100233.31;4971488;28;20200;-72
2022/08/26 06:15:38;;;;;;;0.00;0.00;;;;;;;20.25;100.00;100238.53;4971451;28;20175;-72
2022/08/26 06:18:04;;;;;;;0.00;0.00;;;;;;;20.24;100.00;100232.19;4971466;28;20218;-72
2022/08/26 06:20:30;;;;;;;0.00;0.00;;;;;;;20.15;100.00;100240.84;4971924;28;20626;-72
2022/08/26 06:25:40;;;;;;;0.10;0.10;;;;;;;20.27;100.00;100231.44;4971541;28;20184;-72
2022/08/26 06:28:06;;;;;;;1.17;1.17;;;;;;;20.30;100.00;100238.22;4971716;28;20643;-72
2022/08/26 06:30:37;;;;;;;0.00;0.00;;;;;;;20.25;100.00;100236.56;4971494;28;20175;-72
2022/08/26 06:33:02;;;;;;;0.00;0.00;;;;;;;20.32;100.00;100238.63;4971731;28;20182;-72
2022/08/26 06:35:28;;;;;;;0.00;0.00;;;;;;;20.27;100.00;100236.19;4971211;28;20186;-71
2022/08/26 06:37:54;;;;;;;0.00;0.00;;;;;;;20.04;100.00;100239.13;4971256;28;20202;-72
2022/08/26 06:40:21;;;;;;;1.30;1.20;;;;;;;20.04;100.00;100239.13;4971351;28;20181;-71
2022/08/26 06:42:46;;;;;;;0.00;0.00;;;;;;;19.94;100.00;100235.06;4971336;28;20182;-72
2022/08/26 06:45:12;;;;;;;0.00;0.00;;;;;;;19.92;100.00;100245.75;4971088;28;20181;-72
2022/08/26 06:47:37;;;;;;;0.00;0.00;;;;;;;20.00;100.00;100238.31;4971392;28;20186;-72
2022/08/26 06:50:02;;;;;;;0.00;0.00;;;;;;;20.10;100.00;100235.63;4972695;28;20174;-72
2022/08/26 06:52:28;;;;;;;5.00;2.20;;;;;;;20.26;100.00;100238.19;4975084;28;20176;-71
2022/08/26 06:54:53;;;;;;;0.00;0.00;;;;;;;20.35;100.00;100232.28;4974556;28;20216;-72
2022/08/26 06:57:18;;;;;;;0.00;0.00;;;;;;;20.36;100.00;100234.69;4975073;28;20218;-72
2022/08/26 06:59:44;;;;;;;0.00;0.00;;;;;;;20.43;100.00;100234.78;4974952;28;20180;-72
2022/08/26 07:02:09;;;;;;;0.00;0.00;;;;;;;20.41;100.00;100251.03;4974949;28;20174;-72
2022/08/26 07:04:34;;;;;;;0.23;0.23;;;;;;;20.45;100.00;100239.97;4974581;28;20182;-72
2022/08/26 07:07:00;;;;;;;0.00;0.00;;;;;;;20.49;100.00;100233.25;4974890;28;20206;-72
2022/08/26 07:09:29;;;;;;;0.27;0.27;;;;;;;20.61;100.00;100229.38;4974832;28;20175;-72
2022/08/26 07:11:57;;;;;;;0.10;0.10;;;;;;;20.65;100.00;100235.75;4974753;28;20174;-72
2022/08/26 07:14:24;;;;;;;0.00;0.00;;;;;;;20.76;100.00;100246.94;4974818;28;20174;-72
2022/08/26 07:16:49;;;;;;;0.00;0.00;;;;;;;20.84;100.00;100234.72;4974641;28;20213;-72
2022/08/26 07:19:16;;;;;;;0.00;0.00;;;;;;;21.02;100.00;100238.41;4974653;28;20540;-72
2022/08/26 07:21:41;;;;;;;0.00;0.00;;;;;;;21.04;99.45;100238.03;4974918;28;20175;-72
2022/08/26 07:24:09;;;;;;;0.00;0.00;;;;;;;21.14;99.02;100228.97;4974416;28;20672;-72
2022/08/26 07:26:34;;;;;;;0.00;0.00;;;;;;;21.20;98.28;100238.50;4974561;28;20283;-72
2022/08/26 07:29:00;;;;;;;0.93;0.93;;;;;;;21.24;97.82;100244.88;4974502;28;20208;-72
2022/08/26 07:31:28;;;;;;;0.00;0.00;;;;;;;21.33;97.32;100250.13;4974549;28;20253;-72
2022/08/26 07:33:54;;;;;;;1.13;1.10;;;;;;;21.45;96.57;100238.69;4973966;28;20186;-72
2022/08/26 07:36:20;;;;;;;0.20;0.20;;;;;;;21.44;97.20;100252.97;4974258;28;20170;-72
2022/08/26 07:38:47;;;;;;;0.00;0.00;;;;;;;21.46;98.17;100253.38;4974299;28;20170;-72
2022/08/26 07:41:14;;;;;;;0.00;0.00;;;;;;;21.48;100.00;100245.44;4974290;28;20181;-72
2022/08/26 07:43:39;;;;;;;0.20;0.20;;;;;;;21.55;100.00;100251.81;4974041;28;20174;-72
2022/08/26 07:46:06;;;;;;;0.00;0.00;;;;;;;21.61;100.00;100255.81;4974226;28;20172;-72
2022/08/26 07:48:33;;;;;;;0.00;0.00;;;;;;;21.65;100.00;100255.84;4974205;28;20183;-72
2022/08/26 07:50:58;;;;;;;0.27;0.27;;;;;;;21.76;100.00;100262.25;4970905;28;20175;-72
2022/08/26 07:53:24;;;;;;;0.00;0.00;;;;;;;21.83;99.42;100259.47;4973626;28;20186;-72
2022/08/26 07:55:49;;;;;;;0.00;0.00;;;;;;;21.88;98.77;100264.69;4973494;28;20191;-72
2022/08/26 07:58:15;;;;;;;1.60;0.83;;;;;;;21.91;98.26;100275.00;4973697;28;20595;-72
2022/08/26 08:00:41;;;;;;;25.33;2.47;;;;;;;21.96;97.63;100271.84;4972894;28;20213;-72
2022/08/26 08:03:07;;;;;;;0.00;0.00;;;;;;;21.96;97.67;100268.25;4973687;28;20478;-73
2022/08/26 08:05:33;;;;;;;0.00;0.00;;;;;;;21.92;98.03;100271.03;4973326;28;20181;-72
2022/08/26 08:08:00;;;;;;;0.00;0.00;;;;;;;21.98;97.91;100268.66;4973846;28;20533;-72
2022/08/26 08:10:27;;;;;;;0.20;0.20;;;;;;;21.92;96.56;100273.81;4973264;28;20209;-72
2022/08/26 08:12:53;;;;;;;0.00;0.00;;;;;;;22.00;95.20;100282.22;4973500;28;20205;-72
2022/08/26 08:15:23;;;;;;;0.00;0.00;;;;;;;21.90;94.52;100278.19;4972844;28;20634;-72
2022/08/26 08:17:49;;;;;;;0.00;0.00;;;;;;;21.94;94.22;100276.22;4973569;28;20205;-72
2022/08/26 08:20:15;;;;;;;0.47;0.47;;;;;;;21.91;94.08;100272.22;4973490;28;20688;-72
2022/08/26 08:22:41;;;;;;;0.00;0.00;;;;;;;22.01;93.59;100273.47;4973333;28;20170;-72
2022/08/26 08:25:07;;;;;;;41.03;8.73;;;;;;;22.06;93.45;100273.09;4973148;28;20427;-72
2022/08/26 08:27:34;;;;;;;0.10;0.10;;;;;;;22.12;92.45;100268.72;4976633;28;20263;-72
2022/08/26 08:29:59;;;;;;;0.00;0.00;;;;;;;22.14;92.62;100269.16;4992746;28;20353;-72
2022/08/26 08:32:25;;;;;;;0.00;0.00;;;;;;;22.27;92.88;100272.34;4992782;28;20173;-82
2022/08/26 08:34:50;;;;;;;0.00;0.00;;;;;;;22.40;92.94;100267.19;4992419;28;20269;-74
2022/08/26 08:37:16;;;;;;;0.00;0.00;;;;;;;22.63;93.12;100270.41;4992418;28;20675;-74
2022/08/26 08:39:41;;;;;;;0.00;0.00;;;;;;;22.77;91.64;100267.63;4992658;28;20173;-75
2022/08/26 08:42:25;;;;;;;1.43;1.30;;;;;;;23.02;90.71;100256.50;4991139;28;20268;-74
2022/08/26 08:44:54;;;;;;;0.00;0.00;;;;;;;23.06;88.94;100264.84;4968766;28;20582;-74
2022/08/26 08:47:33;;;;;;;0.00;0.00;;;;;;;23.25;88.77;100269.19;4972921;28;20212;-74
2022/08/26 08:50:05;;;;;;;0.00;0.00;;;;;;;23.34;88.01;100270.34;4973202;28;20177;-74
2022/08/26 08:52:34;;;;;;;0.00;0.00;;;;;;;23.43;87.86;100255.97;4973010;28;20167;-74
2022/08/26 08:55:01;;;;;;;0.00;0.00;;;;;;;23.40;86.42;100257.56;4971301;28;20209;-74
2022/08/26 08:57:37;;;;;;;2.10;2.00;;;;;;;23.55;86.78;100263.09;4972803;28;20198;-73
2022/08/26 09:00:15;;;;;;;0.50;0.50;;;;;;;23.50;85.50;100257.97;4972813;28;20190;-73
2022/08/26 09:03:17;;;;;;;0.10;0.10;;;;;;;23.44;86.77;100254.81;4972636;28;20185;-73
2022/08/26 09:05:43;;;;;;;0.00;0.00;;;;;;;23.67;86.04;100257.13;4918717;28;20192;-73
2022/08/26 09:08:18;;;;;;;0.67;0.67;;;;;;;23.59;84.03;100261.94;4972642;28;20189;-73
2022/08/26 09:10:54;;;;;;;0.00;0.00;;;;;;;23.56;85.28;100248.75;4972530;28;20178;-74
2022/08/26 09:13:22;;;;;;;0.00;0.00;;;;;;;23.64;83.91;100250.34;4972087;28;20273;-73
2022/08/26 09:16:08;;;;;;;0.00;0.00;;;;;;;23.83;84.19;100251.06;4972255;28;20740;-74
2022/08/26 09:18:58;;;;;;;3.07;2.93;;;;;;;23.89;84.49;100250.25;4972262;28;20248;-74
2022/08/26 09:21:25;;;;;;;0.00;0.00;;;;;;;23.91;84.52;100250.63;4972475;28;20174;-74
2022/08/26 09:23:52;;;;;;;0.20;0.20;;;;;;;24.12;84.52;100254.50;4971952;28;20459;-74
2022/08/26 09:26:27;;;;;;;0.00;0.00;;;;;;;24.35;84.13;100246.41;4972343;28;20182;-74
2022/08/26 09:28:57;;;;;;;1.90;1.80;;;;;;;24.38;81.92;100251.16;4972089;28;20204;-73
2022/08/26 09:31:26;;;;;;;0.30;0.30;;;;;;;24.38;82.28;100253.16;4972247;28;20180;-74
2022/08/26 09:34:14;;;;;;;0.23;0.23;;;;;;;24.50;81.08;100252.69;4970312;28;20178;-75
2022/08/26 09:36:43;;;;;;;0.00;0.00;;;;;;;24.53;80.62;100251.84;4968386;28;20209;-74
2022/08/26 09:39:26;;;;;;;0.00;0.00;;;;;;;24.59;79.77;100244.59;4970657;28;20189;-73
2022/08/26 09:42:03;;;;;;;0.00;0.00;;;;;;;24.86;80.77;100245.56;4971837;28;20181;-73
2022/08/26 09:44:30;;;;;;;2.77;1.50;;;;;;;24.68;78.86;100247.72;4968329;28;20564;-73
2022/08/26 09:47:02;;;;;;;0.00;0.00;;;;;;;24.66;78.62;100238.97;4970278;28;20649;-73
2022/08/26 09:49:38;;;;;;;7.70;4.40;;;;;;;24.95;77.69;100225.53;4971810;28;20193;-73
2022/08/26 09:52:22;;;;;;;0.13;0.13;;;;;;;25.08;76.35;100228.63;4972001;28;20182;-73
2022/08/26 09:55:08;;;;;;;0.00;0.00;;;;;;;25.30;76.35;100227.16;4971447;28;20292;-73
2022/08/26 09:57:42;;;;;;;0.00;0.00;;;;;;;25.44;75.82;100227.00;4969562;28;20209;-74
2022/08/26 10:00:36;;;;;;;0.00;0.00;;;;;;;25.56;74.88;100228.47;4971842;28;20193;-74
2022/08/26 10:03:05;;;;;;;0.00;0.00;;;;;;;25.54;73.16;100230.88;4969501;28;20493;-74
2022/08/26 10:05:38;;;;;;;0.00;0.00;;;;;;;25.83;73.97;100220.13;4971801;28;20566;-73
2022/08/26 10:08:24;;;;;;;0.57;0.53;;;;;;;25.68;72.66;100210.31;4971915;28;20177;-74
2022/08/26 10:10:51;;;;;;;0.87;0.87;;;;;;;25.70;72.74;100205.91;4972053;28;20177;-74
2022/08/26 10:13:31;;;;;;;0.00;0.00;;;;;;;25.81;72.04;100200.19;4972022;28;20491;-73
2022/08/26 10:16:07;;;;;;;0.80;0.80;;;;;;;25.73;71.99;100198.69;4972496;28;20166;-73
2022/08/26 10:18:38;;;;;;;0.00;0.00;;;;;;;25.89;71.45;100201.66;4975062;28;20245;-73
2022/08/26 10:21:05;;;;;;;0.13;0.13;;;;;;;26.02;71.03;100199.84;4973198;28;20531;-73
2022/08/26 10:23:37;;;;;;;0.00;0.00;;;;;;;26.15;70.32;100202.88;4990634;28;20228;-73
2022/08/26 10:26:20;;;;;;;0.67;0.67;;;;;;;26.25;68.67;100203.94;4998029;28;20200;-74
2022/08/26 10:29:07;;;;;;;0.97;0.83;;;;;;;26.23;68.13;100198.75;4997887;28;20177;-73
2022/08/26 10:31:38;;;;;;;0.50;0.50;;;;;;;26.25;67.49;100187.91;4997949;28;20656;-73
2022/08/26 10:34:04;;;;;;;0.00;0.00;;;;;;;26.35;68.35;100184.19;4997860;28;20181;-73
2022/08/26 10:36:50;;;;;;;0.63;0.63;;;;;;;26.52;68.08;100182.28;4997862;28;20188;-73
2022/08/26 10:39:36;;;;;;;0.40;0.40;;;;;;;26.50;68.08;100172.75;4985928;28;20554;-72
2022/08/26 10:42:42;;;;;;;0.00;0.00;;;;;;;26.52;67.90;100173.09;4998020;28;20181;-72
2022/08/26 10:45:12;;;;;;;0.10;0.10;;;;;;;26.49;68.03;100165.56;4996467;28;20653;-73
2022/08/26 10:47:50;;;;;;;0.00;0.00;;;;;;;26.64;67.38;100172.50;4997615;28;20190;-72
2022/08/26 10:50:17;;;;;;;0.20;0.20;;;;;;;26.83;68.34;100173.75;4997935;28;20664;-72
2022/08/26 10:53:20;;;;;;;0.00;0.00;;;;;;;26.68;66.75;100171.19;4997697;28;20584;-73
2022/08/26 10:56:12;;;;;;;0.00;0.00;;;;;;;26.64;65.90;100173.28;4997470;28;20621;-73
2022/08/26 10:58:54;;;;;;;0.00;0.00;;;;;;;27.03;66.00;100165.38;4997315;28;20216;-73
2022/08/26 11:01:42;;;;;;;0.00;0.00;;;;;;;27.01;64.44;100168.59;4997441;28;20191;-73
2022/08/26 11:04:22;;;;;;;0.43;0.43;;;;;;;27.34;64.07;100174.34;4997179;28;20182;-73
2022/08/26 11:06:48;;;;;;;1.57;1.17;;;;;;;27.17;61.74;100173.50;4981585;28;20201;-73
2022/08/26 11:09:44;;;;;;;0.00;0.00;;;;;;;27.45;62.20;100169.31;4976789;28;20370;-73
2022/08/26 11:12:35;;;;;;;0.20;0.20;;;;;;;27.46;60.11;100170.91;4977684;28;20516;-73
2022/08/26 11:15:07;;;;;;;0.00;0.00;;;;;;;27.35;59.57;100168.34;4977541;28;20622;-73
2022/08/26 11:17:44;;;;;;;0.50;0.50;;;;;;;27.20;57.56;100162.22;4978005;28;20229;-73
2022/08/26 11:20:22;;;;;;;0.40;0.40;;;;;;;27.35;58.92;100159.13;4978921;28;20181;-73
2022/08/26 11:22:49;;;;;;;0.70;0.70;;;;;;;27.59;57.42;100149.34;4977969;28;20181;-72
2022/08/26 11:25:18;;;;;;;0.00;0.00;;;;;;;27.40;56.39;100153.00;4975837;28;20190;-72
2022/08/26 11:27:47;;;;;;;0.17;0.17;;;;;;;27.45;56.26;100142.03;4982493;28;20189;-73
2022/08/26 11:30:12;;;;;;;0.27;0.27;;;;;;;27.50;57.15;100147.16;4977837;28;20189;-73
2022/08/26 11:32:40;;;;;;;0.30;0.30;;;;;;;27.60;56.08;100142.50;4991316;28;20181;-73
2022/08/26 11:35:31;;;;;;;0.00;0.00;;;;;;;27.75;56.48;100143.81;4995780;28;20185;-72
2022/08/26 11:38:11;;;;;;;0.43;0.43;;;;;;;27.72;56.25;100138.28;4980313;28;20214;-72